Time;durP1;ratioP1;P1;durP2;ratioP2;P2;SDS_P1;SDS_P2;PMS_P1;PMS_P2;Temp;Humidity;BMP_temperature;BMP_pressure;BME280_temperature;BME280_humidity;BME280_pressure;Samples;Min_cycle;Max_cycle;Signal;HPM_P1;HPM_P2
2023/02/18 00:00:23;;;;;;;5.60;1.77;;;18.70;52.30;;;;;;5075674;28;20191;-68
2023/02/18 00:02:50;;;;;;;6.57;2.10;;;18.70;52.40;;;;;;5075355;28;20221;-69
2023/02/18 00:05:18;;;;;;;5.57;1.60;;;18.70;52.30;;;;;;5075233;28;20754;-68
2023/02/18 00:07:45;;;;;;;5.75;2.00;;;18.70;52.40;;;;;;5075359;28;20215;-69
2023/02/18 00:10:15;;;;;;;6.35;1.85;;;18.60;52.30;;;;;;5075031;28;20973;-68
2023/02/18 00:12:42;;;;;;;6.43;1.77;;;18.60;53.00;;;;;;5075620;28;20276;-68
2023/02/18 00:15:12;;;;;;;8.57;2.08;;;18.70;52.40;;;;;;5075756;28;20190;-69
2023/02/18 00:17:39;;;;;;;4.57;1.40;;;18.70;52.40;;;;;;5074962;28;20629;-67
2023/02/18 00:20:07;;;;;;;7.85;2.22;;;18.60;52.30;;;;;;5075144;28;20187;-67
2023/02/18 00:22:35;;;;;;;8.57;2.20;;;18.70;52.40;;;;;;5075455;28;20298;-68
2023/02/18 00:25:02;;;;;;;6.22;1.80;;;18.60;52.30;;;;;;5075258;28;20223;-69
2023/02/18 00:27:29;;;;;;;5.68;2.13;;;18.60;52.40;;;;;;5075338;28;20265;-68
2023/02/18 00:29:58;;;;;;;7.35;2.20;;;18.60;52.40;;;;;;5075239;28;20199;-68
2023/02/18 00:32:27;;;;;;;9.70;1.90;;;18.60;52.40;;;;;;5074649;28;20222;-69
2023/02/18 00:34:54;;;;;;;5.82;1.60;;;18.60;52.40;;;;;;5075083;28;20195;-68
2023/02/18 00:37:21;;;;;;;6.10;1.67;;;18.60;52.40;;;;;;5075048;28;20260;-67
2023/02/18 00:39:48;;;;;;;8.52;2.33;;;18.60;52.40;;;;;;5074981;28;20183;-68
2023/02/18 00:42:15;;;;;;;6.90;1.70;;;18.60;53.00;;;;;;5074732;28;20685;-68
2023/02/18 00:44:43;;;;;;;9.07;1.88;;;18.60;52.40;;;;;;5074282;28;20256;-69
2023/02/18 00:47:10;;;;;;;5.47;1.88;;;18.60;52.40;;;;;;5074768;28;20215;-68
2023/02/18 00:49:39;;;;;;;7.00;1.70;;;18.60;52.40;;;;;;5074520;28;20640;-69
2023/02/18 00:52:06;;;;;;;5.90;1.75;;;18.60;53.00;;;;;;5073147;28;20261;-68
2023/02/18 00:54:33;;;;;;;9.23;2.55;;;18.60;52.40;;;;;;5074730;28;20190;-67
2023/02/18 00:57:00;;;;;;;6.80;1.88;;;18.60;52.40;;;;;;5074535;28;20610;-68
2023/02/18 00:59:27;;;;;;;4.65;1.60;;;18.60;52.40;;;;;;5074319;28;20191;-68
2023/02/18 01:01:54;;;;;;;6.72;2.00;;;18.60;52.40;;;;;;5074677;28;20292;-68
2023/02/18 01:04:21;;;;;;;8.55;1.83;;;18.60;52.40;;;;;;5074388;28;20187;-68
2023/02/18 01:06:51;;;;;;;8.40;2.10;;;18.60;52.50;;;;;;5073602;28;20287;-67
2023/02/18 01:09:18;;;;;;;6.55;1.92;;;18.60;52.50;;;;;;5074299;28;20190;-68
2023/02/18 01:11:45;;;;;;;6.82;1.70;;;18.60;52.50;;;;;;5074152;28;20280;-68
2023/02/18 01:14:12;;;;;;;8.57;1.88;;;18.50;52.40;;;;;;5074745;28;20272;-68
2023/02/18 01:16:40;;;;;;;6.10;1.60;;;18.60;52.50;;;;;;5074475;28;20240;-68
2023/02/18 01:19:07;;;;;;;5.95;1.65;;;18.50;52.40;;;;;;5073804;28;20982;-68
2023/02/18 01:21:34;;;;;;;5.38;1.73;;;18.50;52.40;;;;;;5074383;28;20187;-68
2023/02/18 01:24:02;;;;;;;9.10;2.80;;;18.50;52.40;;;;;;5074332;28;20590;-69
2023/02/18 01:26:30;;;;;;;6.82;1.90;;;18.50;52.40;;;;;;5073740;28;20218;-69
2023/02/18 01:28:57;;;;;;;7.32;2.28;;;18.50;52.40;;;;;;5073390;28;20215;-68
2023/02/18 01:31:24;;;;;;;6.10;1.70;;;18.50;52.40;;;;;;5074050;28;20195;-68
2023/02/18 01:33:51;;;;;;;8.32;2.33;;;18.50;52.40;;;;;;5074172;28;20692;-68
2023/02/18 01:36:18;;;;;;;6.93;1.98;;;18.50;52.40;;;;;;5073949;28;20244;-68
2023/02/18 01:38:45;;;;;;;6.55;2.00;;;18.50;52.40;;;;;;5061013;28;20227;-68
2023/02/18 01:41:14;;;;;;;6.82;1.67;;;18.50;52.40;;;;;;5069467;28;20199;-69
2023/02/18 01:43:41;;;;;;;7.35;1.92;;;18.50;52.50;;;;;;5073623;28;20218;-67
2023/02/18 01:46:16;;;;;;;5.68;2.00;;;18.50;52.50;;;;;;5073966;28;20226;-68
2023/02/18 01:48:46;;;;;;;4.93;1.60;;;18.50;52.50;;;;;;5073771;28;20283;-69
2023/02/18 01:51:17;;;;;;;7.70;1.90;;;18.50;52.50;;;;;;5073640;28;20607;-67
2023/02/18 01:53:50;;;;;;;5.85;1.77;;;18.50;52.50;;;;;;5073338;28;20222;-68
2023/02/18 01:56:27;;;;;;;5.22;1.73;;;18.50;52.50;;;;;;5073515;28;20187;-68
2023/02/18 01:58:56;;;;;;;7.63;2.15;;;18.50;52.50;;;;;;5073087;28;20219;-68
2023/02/18 02:01:24;;;;;;;5.05;1.70;;;18.40;52.40;;;;;;5073161;28;20660;-68
2023/02/18 02:03:52;;;;;;;11.35;3.08;;;18.40;52.40;;;;;;5072873;28;20210;-69
2023/02/18 02:06:23;;;;;;;6.10;1.90;;;18.40;52.40;;;;;;5073040;28;20264;-69
2023/02/18 02:08:54;;;;;;;5.03;1.73;;;18.50;52.50;;;;;;5073363;28;20691;-68
2023/02/18 02:11:46;;;;;;;7.18;1.98;;;18.50;52.50;;;;;;5072990;28;20640;-68
2023/02/18 02:14:39;;;;;;;6.80;1.98;;;18.40;52.50;;;;;;5069571;28;20198;-68
2023/02/18 02:17:15;;;;;;;8.35;1.70;;;18.40;52.50;;;;;;5072373;28;20241;-68
2023/02/18 02:20:23;;;;;;;4.60;1.42;;;18.40;52.00;;;;;;5073187;28;20603;-68
2023/02/18 02:23:21;;;;;;;7.05;1.63;;;18.40;52.50;;;;;;5073215;28;20215;-69
2023/02/18 02:26:14;;;;;;;9.48;1.85;;;18.40;52.50;;;;;;5072735;28;20214;-68
2023/02/18 02:29:04;;;;;;;6.68;1.50;;;18.40;52.50;;;;;;5072047;28;20214;-68
2023/02/18 02:31:54;;;;;;;9.57;2.05;;;18.40;52.60;;;;;;5072841;28;20295;-69
2023/02/18 02:34:43;;;;;;;10.25;2.05;;;18.40;52.60;;;;;;5072269;28;20199;-68
2023/02/18 02:37:16;;;;;;;8.98;2.45;;;18.40;52.60;;;;;;5072384;28;20707;-68
2023/02/18 02:39:54;;;;;;;6.43;1.73;;;18.40;52.60;;;;;;5072464;28;20186;-68
2023/02/18 02:42:29;;;;;;;6.32;1.60;;;18.40;52.60;;;;;;5073049;28;20219;-69
2023/02/18 02:45:04;;;;;;;6.20;1.77;;;18.40;52.60;;;;;;5072782;28;20195;-69
2023/02/18 02:47:41;;;;;;;4.88;1.65;;;18.40;52.60;;;;;;5072548;28;20246;-68
2023/02/18 02:50:16;;;;;;;8.57;2.40;;;18.40;52.60;;;;;;5072520;28;20187;-69
2023/02/18 02:52:48;;;;;;;7.60;1.67;;;18.40;52.60;;;;;;5072409;28;20222;-68
2023/02/18 02:55:15;;;;;;;5.93;2.17;;;18.30;52.50;;;;;;5072595;28;20245;-69
2023/02/18 02:57:48;;;;;;;4.40;1.40;;;18.40;52.60;;;;;;5072298;28;20219;-68
2023/02/18 03:00:19;;;;;;;5.47;1.85;;;18.30;52.50;;;;;;5071951;28;20647;-68
2023/02/18 03:03:06;;;;;;;6.45;1.77;;;18.40;52.60;;;;;;5072256;28;20218;-69
2023/02/18 03:05:46;;;;;;;10.77;2.05;;;18.30;52.60;;;;;;5072146;28;20656;-69
2023/02/18 03:08:24;;;;;;;7.05;1.80;;;18.30;52.50;;;;;;5072538;28;20219;-68
2023/02/18 03:10:59;;;;;;;5.55;1.58;;;18.30;52.60;;;;;;5071956;28;20276;-69
2023/02/18 03:13:36;;;;;;;3.92;1.58;;;18.30;52.60;;;;;;5072146;28;20817;-68
2023/02/18 03:16:13;;;;;;;5.80;1.73;;;18.30;52.60;;;;;;5071905;28;20202;-68
2023/02/18 03:18:45;;;;;;;5.95;1.58;;;18.30;52.60;;;;;;5071859;28;20623;-68
2023/02/18 03:21:22;;;;;;;6.10;1.50;;;18.30;52.60;;;;;;5072301;28;20187;-68
2023/02/18 03:23:55;;;;;;;6.85;1.55;;;18.30;52.60;;;;;;5072185;28;20215;-68
2023/02/18 03:26:25;;;;;;;8.65;1.95;;;18.30;52.50;;;;;;5072156;28;20214;-68
2023/02/18 03:28:55;;;;;;;4.85;1.80;;;18.30;52.50;;;;;;5072414;28;20215;-68
2023/02/18 03:31:27;;;;;;;4.68;1.70;;;18.30;52.50;;;;;;5071520;28;20714;-69
2023/02/18 03:33:59;;;;;;;5.65;1.52;;;18.30;52.50;;;;;;5071814;28;20215;-68
2023/02/18 03:36:28;;;;;;;6.65;1.58;;;18.30;52.50;;;;;;5072089;28;20569;-68
2023/02/18 03:38:59;;;;;;;5.90;1.80;;;18.30;52.50;;;;;;5071915;28;20214;-68
2023/02/18 03:41:27;;;;;;;3.67;1.30;;;18.30;52.50;;;;;;5072120;28;20195;-69
2023/02/18 03:44:04;;;;;;;7.85;1.85;;;18.30;52.50;;;;;;5071294;28;20226;-68
2023/02/18 03:46:31;;;;;;;6.38;1.73;;;18.30;52.60;;;;;;5071967;28;20264;-68
2023/02/18 03:48:59;;;;;;;7.28;1.80;;;18.30;52.60;;;;;;5072292;28;20215;-69
2023/02/18 03:51:28;;;;;;;6.45;1.95;;;18.20;52.40;;;;;;5072075;28;20191;-69
2023/02/18 03:53:55;;;;;;;7.32;1.83;;;18.30;52.60;;;;;;5071769;28;20214;-69
2023/02/18 03:56:22;;;;;;;5.00;1.70;;;18.30;52.50;;;;;;5071208;28;20248;-68
2023/02/18 03:58:49;;;;;;;6.18;1.90;;;18.30;52.60;;;;;;5071595;28;20218;-66
2023/02/18 04:01:17;;;;;;;5.80;1.70;;;18.20;52.40;;;;;;5071911;28;20191;-68
2023/02/18 04:03:44;;;;;;;7.95;2.35;;;18.20;52.40;;;;;;5072104;28;20219;-69
2023/02/18 04:06:11;;;;;;;5.95;1.80;;;18.20;52.50;;;;;;5071426;28;20214;-71
2023/02/18 04:08:40;;;;;;;6.40;1.90;;;18.20;52.50;;;;;;5071370;28;20215;-68
2023/02/18 04:11:07;;;;;;;8.48;1.80;;;18.20;52.50;;;;;;5071570;28;20660;-68
2023/02/18 04:13:34;;;;;;;5.28;1.90;;;18.20;52.50;;;;;;5071669;28;20773;-69
2023/02/18 04:16:01;;;;;;;6.72;1.52;;;18.20;52.40;;;;;;5071767;28;20191;-69
2023/02/18 04:18:28;;;;;;;7.93;1.70;;;18.20;52.40;;;;;;5071824;28;20218;-68
2023/02/18 04:20:55;;;;;;;6.72;1.70;;;18.20;52.40;;;;;;5071474;28;20233;-68
2023/02/18 04:23:23;;;;;;;5.07;1.70;;;18.20;52.40;;;;;;5071494;28;20214;-69
2023/02/18 04:25:52;;;;;;;6.35;1.83;;;18.20;52.40;;;;;;5072751;28;20786;-68
2023/02/18 04:28:20;;;;;;;6.07;1.90;;;18.20;52.40;;;;;;5075373;28;20265;-68
2023/02/18 04:30:47;;;;;;;5.88;1.88;;;18.20;52.40;;;;;;5075481;28;20190;-69
2023/02/18 04:33:15;;;;;;;6.75;1.80;;;18.20;52.40;;;;;;5056602;28;20219;-67
2023/02/18 04:35:42;;;;;;;5.55;1.55;;;18.20;52.40;;;;;;5074868;28;20694;-68
2023/02/18 04:38:11;;;;;;;6.50;1.70;;;18.20;52.40;;;;;;5075115;28;20218;-67
2023/02/18 04:40:38;;;;;;;3.95;1.50;;;18.20;52.40;;;;;;5057199;28;20217;-68
2023/02/18 04:43:07;;;;;;;7.20;1.77;;;18.20;52.40;;;;;;5075119;28;20246;-67
2023/02/18 04:45:34;;;;;;;8.68;1.63;;;18.20;52.40;;;;;;5074516;28;20202;-68
2023/02/18 04:48:01;;;;;;;5.90;1.60;;;18.20;52.40;;;;;;5074923;28;20284;-68
2023/02/18 04:50:28;;;;;;;5.65;1.55;;;18.20;52.40;;;;;;5074577;28;20187;-68
2023/02/18 04:52:55;;;;;;;8.30;1.73;;;18.10;52.40;;;;;;5074919;28;20215;-68
2023/02/18 04:55:23;;;;;;;4.43;1.52;;;18.20;52.40;;;;;;5074837;28;20236;-68
2023/02/18 04:57:50;;;;;;;7.63;1.63;;;18.20;52.40;;;;;;5074290;28;20223;-68
2023/02/18 05:00:21;;;;;;;6.68;2.25;;;18.20;52.40;;;;;;5074366;28;20191;-69
2023/02/18 05:02:49;;;;;;;5.45;1.80;;;18.20;52.40;;;;;;5074382;28;20214;-68
2023/02/18 05:05:16;;;;;;;7.20;2.08;;;18.10;52.30;;;;;;5074274;28;20183;-68
2023/02/18 05:07:43;;;;;;;6.35;1.63;;;18.10;52.40;;;;;;5074541;28;20276;-69
2023/02/18 05:10:12;;;;;;;7.85;1.88;;;18.20;52.40;;;;;;5073849;28;20642;-69
2023/02/18 05:12:39;;;;;;;10.82;1.85;;;18.10;52.40;;;;;;5074489;28;20245;-69
2023/02/18 05:15:07;;;;;;;8.25;2.00;;;18.10;52.30;;;;;;5074453;28;20677;-68
2023/02/18 05:17:37;;;;;;;6.13;1.67;;;18.20;52.40;;;;;;5074325;28;20190;-68
2023/02/18 05:20:06;;;;;;;5.05;1.60;;;18.10;52.30;;;;;;5073886;28;20244;-68
2023/02/18 05:22:34;;;;;;;8.25;1.50;;;18.10;52.30;;;;;;5074017;28;20199;-68
2023/02/18 05:25:01;;;;;;;7.68;1.83;;;18.10;52.30;;;;;;5074277;28;20616;-71
2023/02/18 05:27:28;;;;;;;7.05;1.50;;;18.10;52.30;;;;;;5073680;28;20222;-69
2023/02/18 05:29:55;;;;;;;4.68;1.60;;;18.10;52.30;;;;;;5056109;28;20240;-68
2023/02/18 05:32:22;;;;;;;7.70;1.77;;;18.10;52.30;;;;;;5073270;28;20691;-68
2023/02/18 05:34:51;;;;;;;6.97;1.55;;;18.10;52.30;;;;;;5073996;28;20244;-68
2023/02/18 05:37:18;;;;;;;6.63;1.70;;;18.10;52.30;;;;;;5073195;28;20268;-69
2023/02/18 05:39:45;;;;;;;7.40;1.48;;;18.10;52.30;;;;;;5074140;28;20587;-68
2023/02/18 05:42:12;;;;;;;7.72;1.50;;;18.10;52.20;;;;;;5073859;28;20598;-69
2023/02/18 05:44:39;;;;;;;6.75;1.77;;;18.10;52.20;;;;;;5073237;28;20218;-68
2023/02/18 05:47:09;;;;;;;5.55;2.13;;;18.10;52.20;;;;;;5073092;28;20211;-67
2023/02/18 05:49:36;;;;;;;7.13;1.70;;;18.20;52.30;;;;;;5073605;28;20211;-68
2023/02/18 05:52:05;;;;;;;7.57;1.80;;;18.20;52.20;;;;;;5073646;28;20564;-68
2023/02/18 05:54:33;;;;;;;5.55;1.40;;;18.20;52.20;;;;;;5073530;28;20688;-69
2023/02/18 05:57:01;;;;;;;7.13;1.70;;;18.20;52.30;;;;;;5072752;28;20612;-68
2023/02/18 05:59:29;;;;;;;5.35;1.60;;;18.20;52.20;;;;;;5073617;28;20218;-68
2023/02/18 06:01:56;;;;;;;6.10;1.70;;;18.20;52.10;;;;;;5073132;28;20191;-68
2023/02/18 06:04:24;;;;;;;8.75;2.05;;;18.20;52.10;;;;;;5073363;28;20284;-68
2023/02/18 06:06:51;;;;;;;5.13;1.50;;;18.20;52.10;;;;;;5073051;28;20260;-69
2023/02/18 06:09:19;;;;;;;8.05;1.58;;;18.30;52.10;;;;;;5072642;28;20241;-68
2023/02/18 06:11:47;;;;;;;4.55;1.42;;;18.30;52.10;;;;;;5073100;28;20234;-68
2023/02/18 06:14:14;;;;;;;5.13;1.35;;;18.30;52.00;;;;;;5073401;28;20214;-68
2023/02/18 06:16:41;;;;;;;6.45;1.55;;;18.40;52.00;;;;;;5073200;28;20195;-68
2023/02/18 06:19:08;;;;;;;6.43;1.63;;;18.40;52.00;;;;;;5072837;28;20214;-68
2023/02/18 06:21:36;;;;;;;4.75;1.40;;;18.40;51.90;;;;;;5072377;28;20187;-69
2023/02/18 06:24:03;;;;;;;5.53;1.52;;;18.40;51.90;;;;;;5072889;28;20221;-68
2023/02/18 06:26:31;;;;;;;7.72;1.80;;;18.40;51.80;;;;;;5072862;28;20190;-69
2023/02/18 06:28:59;;;;;;;6.03;1.48;;;18.40;51.80;;;;;;5072748;28;20214;-68
2023/02/18 06:31:26;;;;;;;6.18;1.60;;;18.50;51.70;;;;;;5072934;28;20186;-69
2023/02/18 06:33:53;;;;;;;4.55;1.50;;;18.50;51.70;;;;;;5072788;28;20219;-68
2023/02/18 06:36:20;;;;;;;5.22;1.13;;;18.50;51.60;;;;;;5072898;28;20195;-68
2023/02/18 06:38:47;;;;;;;3.70;1.10;;;18.50;51.50;;;;;;5072869;28;20218;-69
2023/02/18 06:41:15;;;;;;;6.90;2.10;;;18.60;51.60;;;;;;5072790;28;20191;-69
2023/02/18 06:43:44;;;;;;;5.78;1.50;;;18.60;51.50;;;;;;5072860;28;20215;-68
2023/02/18 06:46:11;;;;;;;6.70;1.60;;;18.60;51.70;;;;;;5072034;28;20191;-68
2023/02/18 06:48:38;;;;;;;3.97;1.40;;;18.60;51.40;;;;;;5072366;28;20234;-68
2023/02/18 06:51:06;;;;;;;5.13;1.33;;;18.60;51.30;;;;;;5072603;28;20195;-69
2023/02/18 06:53:33;;;;;;;7.32;1.52;;;18.60;51.30;;;;;;5072581;28;20623;-69
2023/02/18 06:56:01;;;;;;;5.05;1.60;;;18.70;51.40;;;;;;5072627;28;20248;-68
2023/02/18 06:58:28;;;;;;;6.35;1.50;;;18.70;51.40;;;;;;5072123;28;20276;-68
2023/02/18 07:00:57;;;;;;;4.43;1.33;;;18.70;51.40;;;;;;5072588;28;20200;-68
2023/02/18 07:03:24;;;;;;;5.38;1.65;;;18.70;51.30;;;;;;5072657;28;20211;-68
2023/02/18 07:05:51;;;;;;;3.92;1.48;;;18.70;51.30;;;;;;5072246;28;20328;-69
2023/02/18 07:08:18;;;;;;;3.63;1.00;;;18.70;51.20;;;;;;5072346;28;20284;-69
2023/02/18 07:10:46;;;;;;;4.38;1.40;;;18.80;51.30;;;;;;5071203;28;20280;-68
2023/02/18 07:13:13;;;;;;;5.63;1.60;;;18.70;51.20;;;;;;5054563;28;20215;-69
2023/02/18 07:15:41;;;;;;;4.00;1.20;;;18.80;51.20;;;;;;5072571;28;20537;-68
2023/02/18 07:18:10;;;;;;;2.85;1.30;;;18.80;51.20;;;;;;5071888;28;20248;-68
2023/02/18 07:20:37;;;;;;;6.43;1.20;;;18.80;51.10;;;;;;5072368;28;20236;-68
2023/02/18 07:23:04;;;;;;;5.75;2.08;;;18.80;51.10;;;;;;5071946;28;20233;-68
2023/02/18 07:25:32;;;;;;;6.78;1.40;;;18.80;51.10;;;;;;5072293;28;20183;-69
2023/02/18 07:27:59;;;;;;;4.05;1.40;;;18.90;51.10;;;;;;5053735;28;20258;-69
2023/02/18 07:30:26;;;;;;;5.38;1.45;;;18.90;51.10;;;;;;5072223;28;20615;-68
2023/02/18 07:32:53;;;;;;;5.22;1.38;;;18.80;51.00;;;;;;5072037;28;20187;-68
2023/02/18 07:35:22;;;;;;;5.47;1.48;;;18.90;51.00;;;;;;5071784;28;20187;-69
2023/02/18 07:37:50;;;;;;;4.35;1.15;;;18.90;51.00;;;;;;5071929;28;20652;-68
2023/02/18 07:40:20;;;;;;;3.13;1.15;;;18.90;50.90;;;;;;5071376;28;20714;-67
2023/02/18 07:42:47;;;;;;;3.05;0.95;;;18.90;50.90;;;;;;5072078;28;20183;-68
2023/02/18 07:45:15;;;;;;;3.90;1.38;;;18.90;50.90;;;;;;5071855;28;20214;-68
2023/02/18 07:47:44;;;;;;;3.90;1.35;;;18.90;50.90;;;;;;5071953;28;20211;-68
2023/02/18 07:50:11;;;;;;;4.15;1.30;;;18.90;50.90;;;;;;5071924;28;20215;-67
2023/02/18 07:52:40;;;;;;;3.28;1.30;;;18.90;50.90;;;;;;5063982;28;20187;-68
2023/02/18 07:55:08;;;;;;;3.50;1.55;;;18.90;50.80;;;;;;5071898;28;20696;-69
2023/02/18 07:57:56;;;;;;;4.53;1.27;;;18.90;50.80;;;;;;5071853;28;20195;-69
2023/02/18 08:00:23;;;;;;;4.13;1.52;;;19.00;50.80;;;;;;5072581;28;20190;-68
2023/02/18 08:02:50;;;;;;;4.05;1.20;;;19.00;50.80;;;;;;5075143;28;20560;-68
2023/02/18 08:05:18;;;;;;;3.88;1.17;;;19.00;50.80;;;;;;5075684;28;20801;-69
2023/02/18 08:07:46;;;;;;;4.13;1.13;;;19.00;50.70;;;;;;5075714;28;20219;-69
2023/02/18 08:10:13;;;;;;;3.35;1.30;;;19.00;50.70;;;;;;5075350;28;20226;-69
2023/02/18 08:12:40;;;;;;;3.28;1.15;;;19.00;50.60;;;;;;5075541;28;20722;-68
2023/02/18 08:15:09;;;;;;;4.38;1.00;;;19.00;50.60;;;;;;5075330;28;20215;-69
2023/02/18 08:17:37;;;;;;;4.50;1.40;;;19.00;50.60;;;;;;5075306;28;20260;-69
2023/02/18 08:20:05;;;;;;;3.08;1.20;;;19.10;50.60;;;;;;5074884;28;20628;-68
2023/02/18 08:22:32;;;;;;;3.92;1.00;;;19.10;50.60;;;;;;5075162;28;20191;-68
2023/02/18 08:25:01;;;;;;;2.75;0.90;;;19.00;50.50;;;;;;5075503;28;20214;-68
2023/02/18 08:27:28;;;;;;;3.60;0.93;;;19.10;50.60;;;;;;5075152;28;20223;-68
2023/02/18 08:29:56;;;;;;;2.30;0.90;;;19.10;50.60;;;;;;5075275;28;20691;-68
2023/02/18 08:32:23;;;;;;;3.30;0.88;;;19.00;50.50;;;;;;5075379;28;20282;-67
2023/02/18 08:34:50;;;;;;;5.32;0.93;;;19.10;50.50;;;;;;5075283;28;20219;-67
2023/02/18 08:37:17;;;;;;;3.30;0.90;;;19.10;50.50;;;;;;5075126;28;20599;-68
2023/02/18 08:39:44;;;;;;;2.90;1.20;;;19.10;50.50;;;;;;5074921;28;20297;-69
2023/02/18 08:42:13;;;;;;;2.63;1.10;;;19.10;50.50;;;;;;5075109;28;20233;-67
2023/02/18 08:44:40;;;;;;;2.38;1.08;;;19.10;50.60;;;;;;5074824;28;20282;-69
2023/02/18 08:47:07;;;;;;;5.20;0.80;;;19.10;50.50;;;;;;5074797;28;20187;-68
2023/02/18 08:49:35;;;;;;;3.42;1.13;;;19.10;50.50;;;;;;5074246;28;20276;-68
2023/02/18 08:52:03;;;;;;;3.30;1.17;;;19.10;50.40;;;;;;5074919;28;20198;-68
2023/02/18 08:54:30;;;;;;;2.67;0.90;;;19.10;50.40;;;;;;5074436;28;20753;-67
2023/02/18 08:56:58;;;;;;;3.40;0.90;;;19.10;50.40;;;;;;5074742;28;20264;-68
2023/02/18 08:59:27;;;;;;;3.95;1.17;;;19.10;50.30;;;;;;5074464;28;20272;-69
2023/02/18 09:01:54;;;;;;;2.15;1.08;;;19.10;50.40;;;;;;5074117;28;20187;-69
2023/02/18 09:04:22;;;;;;;3.90;1.00;;;19.10;50.30;;;;;;5074692;28;20226;-68
2023/02/18 09:06:50;;;;;;;3.38;1.20;;;19.10;50.20;;;;;;5074299;28;20191;-68
2023/02/18 09:09:17;;;;;;;3.20;0.80;;;19.10;50.20;;;;;;5074407;28;20234;-68
2023/02/18 09:11:45;;;;;;;4.40;1.00;;;19.10;50.20;;;;;;5073883;28;20230;-68
2023/02/18 09:14:12;;;;;;;3.92;1.17;;;19.10;50.20;;;;;;5073234;28;20704;-68
2023/02/18 09:16:41;;;;;;;3.33;1.17;;;19.10;50.20;;;;;;5074314;28;20199;-68
2023/02/18 09:19:09;;;;;;;4.03;1.10;;;19.10;50.20;;;;;;5074285;28;20269;-69
2023/02/18 09:21:36;;;;;;;1.92;0.77;;;19.10;50.20;;;;;;5074413;28;20380;-69
2023/02/18 09:24:04;;;;;;;2.28;0.88;;;19.10;50.20;;;;;;5073993;28;20215;-69
2023/02/18 09:26:31;;;;;;;3.38;1.00;;;19.10;50.20;;;;;;5073852;28;20596;-68
2023/02/18 09:28:59;;;;;;;3.47;1.30;;;19.10;50.10;;;;;;5074088;28;20238;-69
2023/02/18 09:31:28;;;;;;;2.70;1.02;;;19.10;50.10;;;;;;5074139;28;20240;-69
2023/02/18 09:33:59;;;;;;;2.30;1.20;;;19.20;50.20;;;;;;5073685;28;20696;-69
2023/02/18 09:36:27;;;;;;;2.53;0.73;;;19.20;50.20;;;;;;5073684;28;20191;-69
2023/02/18 09:38:54;;;;;;;2.25;0.90;;;19.20;50.20;;;;;;5073246;28;20268;-68
2023/02/18 09:41:30;;;;;;;2.40;0.88;;;19.10;50.10;;;;;;5073470;28;20244;-68
2023/02/18 09:44:02;;;;;;;4.47;1.10;;;19.20;50.30;;;;;;5074102;28;20587;-69
2023/02/18 09:46:33;;;;;;;3.30;1.13;;;19.20;50.20;;;;;;5073750;28;20191;-68
2023/02/18 09:49:07;;;;;;;1.80;0.85;;;19.20;50.20;;;;;;5073365;28;20230;-68
2023/02/18 09:51:34;;;;;;;2.33;0.90;;;19.20;50.20;;;;;;5073143;28;20248;-69
2023/02/18 09:54:01;;;;;;;1.98;0.85;;;19.20;50.20;;;;;;5073802;28;20731;-69
2023/02/18 09:56:33;;;;;;;4.43;1.10;;;19.20;50.20;;;;;;5073636;28;20186;-69
2023/02/18 09:59:04;;;;;;;1.60;0.90;;;19.20;50.20;;;;;;5073234;28;20219;-68
2023/02/18 10:01:35;;;;;;;2.92;1.10;;;19.20;50.20;;;;;;5072949;28;20232;-68
2023/02/18 10:04:10;;;;;;;3.03;0.77;;;19.20;50.30;;;;;;5073443;28;20219;-69
2023/02/18 10:06:37;;;;;;;1.83;0.85;;;19.20;50.20;;;;;;5073455;28;20240;-69
2023/02/18 10:09:14;;;;;;;3.35;1.05;;;19.20;50.20;;;;;;5073218;28;20236;-68
2023/02/18 10:11:43;;;;;;;2.55;0.88;;;19.20;50.20;;;;;;5073196;28;20234;-69
2023/02/18 10:14:12;;;;;;;2.35;0.80;;;19.20;50.20;;;;;;5072716;28;20649;-68
2023/02/18 10:16:40;;;;;;;2.33;1.02;;;19.20;50.20;;;;;;5073330;28;20186;-69
2023/02/18 10:19:21;;;;;;;4.25;0.88;;;19.20;50.20;;;;;;5072805;28;20748;-69
2023/02/18 10:21:49;;;;;;;3.40;1.23;;;19.20;50.20;;;;;;5072869;28;20195;-68
2023/02/18 10:24:25;;;;;;;4.90;1.15;;;19.20;50.20;;;;;;5072438;28;20556;-68
2023/02/18 10:26:53;;;;;;;3.97;0.95;;;19.20;50.20;;;;;;5072730;28;20729;-68
2023/02/18 10:29:21;;;;;;;2.70;1.00;;;19.20;50.20;;;;;;5055012;28;20288;-68
2023/02/18 10:31:54;;;;;;;1.60;0.90;;;19.20;50.20;;;;;;5072531;28;20187;-68
2023/02/18 10:34:40;;;;;;;3.15;1.00;;;19.20;50.20;;;;;;5072571;28;20707;-69
2023/02/18 10:37:19;;;;;;;1.85;0.80;;;19.20;50.20;;;;;;5073158;28;20194;-68
2023/02/18 10:39:59;;;;;;;4.43;1.20;;;19.20;50.20;;;;;;5072842;28;20292;-68
2023/02/18 10:42:39;;;;;;;2.65;1.02;;;19.20;50.20;;;;;;5072790;28;20191;-68
2023/02/18 10:45:18;;;;;;;2.00;1.10;;;19.20;50.20;;;;;;5072419;28;20276;-69
2023/02/18 10:47:54;;;;;;;3.80;0.85;;;19.20;50.20;;;;;;5072265;28;20191;-68
2023/02/18 10:50:29;;;;;;;3.03;1.20;;;19.20;50.20;;;;;;5072857;28;20276;-69
2023/02/18 10:53:01;;;;;;;4.55;1.08;;;19.20;50.30;;;;;;5072585;28;20194;-68
2023/02/18 10:55:37;;;;;;;1.85;1.08;;;19.20;50.20;;;;;;5072665;28;20226;-69
2023/02/18 10:58:23;;;;;;;2.30;0.90;;;19.20;50.20;;;;;;5072040;28;20190;-69
2023/02/18 11:00:51;;;;;;;3.47;0.90;;;19.20;50.20;;;;;;5072817;28;20218;-68
2023/02/18 11:03:20;;;;;;;5.05;1.42;;;19.20;50.20;;;;;;5072516;28;20649;-69
2023/02/18 11:05:51;;;;;;;5.63;1.17;;;19.20;50.20;;;;;;5072695;28;20219;-67
2023/02/18 11:08:22;;;;;;;3.63;1.10;;;19.20;50.20;;;;;;5072137;28;20211;-68
2023/02/18 11:10:49;;;;;;;3.17;1.20;;;19.20;50.20;;;;;;5071689;28;20218;-69
2023/02/18 11:13:23;;;;;;;2.50;1.00;;;19.20;50.20;;;;;;5072561;28;20198;-68
2023/02/18 11:15:59;;;;;;;1.63;1.00;;;19.20;50.20;;;;;;5072535;28;20264;-69
2023/02/18 11:18:42;;;;;;;2.17;1.00;;;19.20;50.30;;;;;;5072290;28;20277;-68
2023/02/18 11:21:28;;;;;;;3.40;0.90;;;19.20;50.20;;;;;;5071755;28;20214;-67
2023/02/18 11:23:57;;;;;;;2.55;1.00;;;19.20;50.20;;;;;;5072023;28;20191;-69
2023/02/18 11:26:28;;;;;;;2.78;0.90;;;19.20;50.20;;;;;;5071999;28;20600;-68
2023/02/18 11:29:00;;;;;;;2.67;1.00;;;19.20;50.20;;;;;;5071803;28;20724;-68
2023/02/18 11:31:39;;;;;;;1.88;1.20;;;19.20;50.20;;;;;;5071613;28;20243;-68
2023/02/18 11:34:07;;;;;;;1.92;0.85;;;19.20;50.90;;;;;;5071890;28;20190;-68
2023/02/18 11:36:37;;;;;;;4.22;1.00;;;19.20;50.20;;;;;;5074709;28;20194;-69
2023/02/18 11:39:06;;;;;;;1.38;0.85;;;19.20;50.20;;;;;;5075930;28;20674;-67
2023/02/18 11:41:37;;;;;;;3.67;1.40;;;19.20;50.20;;;;;;5058928;28;20207;-67
2023/02/18 11:44:17;;;;;;;2.40;1.05;;;19.20;50.20;;;;;;5075879;28;20269;-68
2023/02/18 11:46:57;;;;;;;4.40;1.00;;;19.20;50.20;;;;;;5076073;28;20194;-69
2023/02/18 11:49:25;;;;;;;3.17;1.00;;;19.20;50.20;;;;;;5075699;28;20230;-68
2023/02/18 11:51:54;;;;;;;4.65;1.20;;;19.20;50.20;;;;;;5075766;28;20245;-67
2023/02/18 11:54:25;;;;;;;5.00;1.15;;;19.20;50.20;;;;;;5075954;28;20352;-69
2023/02/18 11:56:58;;;;;;;3.95;1.13;;;19.20;50.20;;;;;;5075498;28;20241;-68
2023/02/18 11:59:27;;;;;;;2.72;1.00;;;19.30;50.30;;;;;;5075533;28;20218;-68
2023/02/18 12:02:02;;;;;;;2.95;1.05;;;19.20;50.20;;;;;;5075830;28;20332;-69
2023/02/18 12:04:37;;;;;;;1.25;0.95;;;19.20;50.20;;;;;;5075390;28;20214;-68
2023/02/18 12:07:17;;;;;;;5.10;1.10;;;19.20;50.30;;;;;;5075285;28;20236;-67
2023/02/18 12:09:48;;;;;;;2.40;0.90;;;19.20;50.20;;;;;;5075565;28;20234;-69
2023/02/18 12:12:19;;;;;;;3.38;0.93;;;19.20;50.20;;;;;;5075605;28;20191;-68
2023/02/18 12:14:46;;;;;;;3.03;1.10;;;19.30;50.40;;;;;;5075314;28;20265;-69
2023/02/18 12:17:30;;;;;;;2.40;1.00;;;19.20;50.20;;;;;;5075552;28;20183;-69
2023/02/18 12:20:16;;;;;;;2.45;0.90;;;19.30;50.40;;;;;;5074673;28;20215;-69
2023/02/18 12:22:48;;;;;;;3.55;1.23;;;19.30;50.30;;;;;;5075098;28;20539;-69
2023/02/18 12:25:29;;;;;;;3.03;0.90;;;19.30;50.30;;;;;;5075405;28;20716;-69
2023/02/18 12:28:17;;;;;;;2.80;1.00;;;19.30;50.30;;;;;;5075313;28;20191;-69
2023/02/18 12:31:04;;;;;;;3.15;0.90;;;19.20;50.30;;;;;;5071053;28;20254;-68
2023/02/18 12:33:42;;;;;;;3.80;1.40;;;19.30;50.40;;;;;;5074824;28;20195;-68
2023/02/18 12:36:17;;;;;;;2.67;1.00;;;19.30;50.30;;;;;;5074894;28;20222;-69
2023/02/18 12:38:55;;;;;;;3.22;1.33;;;19.30;50.30;;;;;;5074804;28;20197;-69
2023/02/18 12:41:32;;;;;;;1.55;0.73;;;19.30;50.30;;;;;;5074984;28;20218;-68
2023/02/18 12:44:10;;;;;;;4.40;1.00;;;19.30;50.40;;;;;;5074518;28;20676;-68
2023/02/18 12:46:51;;;;;;;1.73;0.90;;;19.30;50.30;;;;;;5074730;28;20218;-69
2023/02/18 12:49:40;;;;;;;2.65;0.98;;;19.30;50.30;;;;;;5074809;28;20218;-68
2023/02/18 12:52:21;;;;;;;2.70;0.90;;;19.30;50.30;;;;;;5074869;28;20195;-68
2023/02/18 12:55:20;;;;;;;2.30;0.90;;;19.30;50.30;;;;;;5074861;28;20275;-68
2023/02/18 12:57:53;;;;;;;4.05;0.90;;;19.30;50.30;;;;;;5074322;28;20199;-68
2023/02/18 13:00:50;;;;;;;3.65;0.90;;;19.30;50.30;;;;;;5074848;28;20275;-69
2023/02/18 13:03:41;;;;;;;2.55;1.20;;;19.30;50.30;;;;;;5071596;28;20203;-68